This is the latest recevied weather packets stored in our database for station/object CE4ERM-13. If no packets are shown the sender has not sent any weather packets the latest 10 day(s).
| Time | Temp. | Humidity | Pressure | Rain* | Wind** | Luminosity | Snow |
|---|---|---|---|---|---|---|---|
| 1777361666 | 19.44° C | 38% | 1018.6 hPa | - | - | - | - |
| 1777361569 | 22.78° C | 33% | 1021 hPa | - | - | - | - |
| 1777361066 | 19.44° C | 37% | 1021.5 hPa | - | - | - | - |
| 1777360465 | 19.44° C | 37% | 1018.6 hPa | - | - | - | - |
| 1777360368 | 22.78° C | 33% | 1020.3 hPa | - | - | - | - |
| 1777359865 | 19.44° C | 37% | 1025.7 hPa | - | - | - | - |
| 1777359766 | 22.78° C | 33% | 1020.2 hPa | - | - | - | - |
| 1777359264 | 19.44° C | 37% | 1020.7 hPa | - | - | - | - |
| 1777359167 | 20.56° C | 36% | 1020.2 hPa | - | - | - | - |
| 1777358664 | 19.44° C | 37% | 1022.9 hPa | - | - | - | - |
| 1777358567 | 22.78° C | 32% | 1020.5 hPa | - | - | - | - |
| 1777358124 | 19.44° C | 37% | 1020.9 hPa | - | - | - | - |
| 1777358124 | 22.78° C | 31% | 1020.6 hPa | - | - | - | - |
| 1777358063 | 19.44° C | 37% | 1020.9 hPa | - | - | - | - |
| 1777357967 | 22.78° C | 31% | 1020.6 hPa | - | - | - | - |
| 1777357843 | 20° C | 37% | 1023.6 hPa | - | - | - | - |
| 1777357843 | 20° C | 37% | 1023.1 hPa | - | - | - | - |
| 1777357463 | 20° C | 37% | 1021.9 hPa | - | - | - | - |
| 1777357367 | 22.78° C | 32% | 1020.9 hPa | - | - | - | - |
| 1777356863 | 20° C | 37% | 1023.6 hPa | - | - | - | - |
| 1777356263 | 20° C | 37% | 1023.1 hPa | - | - | - | - |
| 1777356166 | 22.78° C | 31% | 1020.1 hPa | - | - | - | - |
| 1777355663 | 20° C | 37% | 1021.9 hPa | - | - | - | - |
| 1777355566 | 20.56° C | 35% | 1020.2 hPa | - | - | - | - |
| 1777355062 | 20° C | 38% | 1021.3 hPa | - | - | - | - |
* Rain since midnight (hover to see other rain measurements)
** Current wind speed in m/s (hover to see current wind gust speed)